createdAt,value
2022-11-12T00:01:09.596Z,8.00
2022-11-12T00:06:12.555Z,8.00
2022-11-12T00:11:16.521Z,8.00
2022-11-12T00:16:20.036Z,8.00
2022-11-12T00:21:22.899Z,8.00
2022-11-12T00:26:25.964Z,8.00
2022-11-12T00:31:29.100Z,8.00
2022-11-12T00:36:32.027Z,8.00
2022-11-12T00:41:34.984Z,8.10
2022-11-12T00:46:37.702Z,8.10
2022-11-12T00:51:41.020Z,8.10
2022-11-12T00:56:47.429Z,8.10
2022-11-12T01:01:51.277Z,8.20
2022-11-12T01:06:54.302Z,8.20
2022-11-12T01:11:57.367Z,8.20
2022-11-12T01:17:00.234Z,8.10
2022-11-12T01:22:03.216Z,8.10
2022-11-12T01:27:06.210Z,8.00
2022-11-12T01:32:09.152Z,8.00
2022-11-12T01:37:12.076Z,8.00
2022-11-12T01:42:14.898Z,8.00
2022-11-12T01:47:29.908Z,8.10
2022-11-12T01:52:43.235Z,8.00
2022-11-12T01:58:05.570Z,8.00
2022-11-12T02:03:16.010Z,8.10
2022-11-12T02:08:19.418Z,8.10
2022-11-12T02:13:41.149Z,8.00
2022-11-12T02:18:44.080Z,8.00
2022-11-12T02:23:46.907Z,8.00
2022-11-12T02:28:49.768Z,8.00
2022-11-12T02:33:52.696Z,7.90
2022-11-12T02:38:55.769Z,7.80
2022-11-12T02:43:58.661Z,7.70
2022-11-12T02:49:01.452Z,7.50
2022-11-12T02:54:04.384Z,7.50
2022-11-12T02:59:07.202Z,7.40
2022-11-12T03:04:10.156Z,7.40
2022-11-12T03:09:13.424Z,7.30
2022-11-12T03:14:16.515Z,7.30
2022-11-12T03:19:19.466Z,7.30
2022-11-12T03:24:22.309Z,7.30
2022-11-12T03:29:26.350Z,7.30
2022-11-12T03:34:29.223Z,7.30
2022-11-12T03:39:32.116Z,7.30
2022-11-12T03:44:35.123Z,7.30
2022-11-12T03:49:40.830Z,7.20
2022-11-12T03:54:43.737Z,7.00
2022-11-12T03:59:47.031Z,6.90
2022-11-12T04:05:08.198Z,6.80
2022-11-12T04:10:11.363Z,6.70
2022-11-12T04:15:14.332Z,6.50
2022-11-12T04:20:37.207Z,6.40
2022-11-12T04:25:59.408Z,6.30
2022-11-12T04:31:02.676Z,6.20
2022-11-12T04:36:05.667Z,6.20
2022-11-12T04:41:27.507Z,6.10
2022-11-12T04:46:30.475Z,6.10
2022-11-12T04:51:51.723Z,6.00
2022-11-12T04:56:54.613Z,5.90
2022-11-12T05:01:57.434Z,5.90
2022-11-12T05:07:01.999Z,5.90
2022-11-12T05:12:05.182Z,5.90
2022-11-12T05:17:08.181Z,5.80
2022-11-12T05:22:33.299Z,5.70
2022-11-12T05:27:35.690Z,5.60
2022-11-12T05:32:38.595Z,5.60
2022-11-12T05:37:41.438Z,5.60
2022-11-12T05:42:45.464Z,5.60
2022-11-12T05:47:48.544Z,5.60
2022-11-12T05:52:51.343Z,5.70
2022-11-12T05:57:54.294Z,5.80
2022-11-12T06:02:58.943Z,5.90
2022-11-12T06:08:02.608Z,5.90
2022-11-12T06:13:06.050Z,5.90
2022-11-12T06:18:09.983Z,6.00
2022-11-12T06:23:12.840Z,6.00
2022-11-12T06:28:15.740Z,6.00
2022-11-12T06:33:18.764Z,6.00
2022-11-12T06:38:21.944Z,6.00
2022-11-12T06:43:26.174Z,6.00
2022-11-12T06:48:30.709Z,6.10
2022-11-12T06:53:33.664Z,6.10
2022-11-12T06:58:36.782Z,6.20
2022-11-12T07:03:41.905Z,6.30
2022-11-12T07:08:49.778Z,6.50
2022-11-12T07:13:52.692Z,6.60
2022-11-12T07:18:55.572Z,6.70
2022-11-12T07:23:58.507Z,6.90
2022-11-12T07:29:01.466Z,7.10
2022-11-12T07:34:04.463Z,7.30
2022-11-12T07:39:07.436Z,7.60
2022-11-12T07:44:10.671Z,8.00
2022-11-12T07:49:13.668Z,8.30
2022-11-12T07:54:16.599Z,8.70
2022-11-12T07:59:19.533Z,9.10
2022-11-12T08:04:23.149Z,9.50
2022-11-12T08:09:26.044Z,9.90
2022-11-12T08:14:29.370Z,10.30
2022-11-12T08:19:32.304Z,10.60
2022-11-12T08:24:35.152Z,10.90
2022-11-12T08:29:38.023Z,11.20
2022-11-12T08:34:41.535Z,11.50
2022-11-12T08:39:44.461Z,11.70
2022-11-12T08:44:47.464Z,12.10
2022-11-12T08:49:50.470Z,12.50
2022-11-12T08:54:53.382Z,13.00
2022-11-12T08:59:56.255Z,13.60
2022-11-12T09:04:59.133Z,14.40
2022-11-12T09:10:02.278Z,15.00
2022-11-12T09:15:36.323Z,15.30
2022-11-12T09:20:31.372Z,15.40
2022-11-12T09:25:35.359Z,15.50
2022-11-12T09:30:43.791Z,15.60
2022-11-12T09:35:48.035Z,15.70
2022-11-12T09:40:59.885Z,15.50
2022-11-12T09:46:27.313Z,15.10
2022-11-12T09:51:46.698Z,14.80
2022-11-12T09:56:50.983Z,14.40
2022-11-12T10:02:05.566Z,14.20
2022-11-12T10:07:43.740Z,14.00
2022-11-12T10:13:17.401Z,13.90
2022-11-12T10:18:36.136Z,14.00
2022-11-12T10:23:54.176Z,14.10
2022-11-12T10:29:19.185Z,14.20
2022-11-12T10:34:24.484Z,14.20
2022-11-12T10:39:44.246Z,14.30
2022-11-12T10:44:48.705Z,14.50
2022-11-12T10:50:16.582Z,14.80
2022-11-12T10:55:56.521Z,15.10
2022-11-12T11:01:16.458Z,15.10
2022-11-12T11:06:26.562Z,15.00
2022-11-12T11:11:31.397Z,15.00
2022-11-12T11:16:52.549Z,14.90
2022-11-12T11:22:14.916Z,14.90
2022-11-12T11:27:42.454Z,14.80
2022-11-12T11:32:54.154Z,14.80
2022-11-12T11:38:35.901Z,14.90
2022-11-12T11:44:13.794Z,14.90
2022-11-12T11:49:44.667Z,15.00
2022-11-12T11:55:12.329Z,15.00
2022-11-12T12:00:23.056Z,15.00
2022-11-12T12:05:33.502Z,15.10
2022-11-12T12:11:08.193Z,15.10
2022-11-12T12:16:39.079Z,15.10
2022-11-12T12:21:46.890Z,15.10
2022-11-12T12:27:04.591Z,15.20
2022-11-12T12:32:28.867Z,15.20
2022-11-12T12:37:42.600Z,15.10
2022-11-12T12:43:00.227Z,15.10
2022-11-12T12:48:11.471Z,15.20
2022-11-12T12:53:22.676Z,15.30
2022-11-12T12:58:47.419Z,15.30
2022-11-12T13:03:52.942Z,15.10
2022-11-12T13:09:25.763Z,15.00
2022-11-12T13:15:19.287Z,15.00
2022-11-12T13:20:34.485Z,15.00
2022-11-12T13:25:38.707Z,15.00
2022-11-12T13:30:41.469Z,15.00
2022-11-12T13:35:44.677Z,15.10
2022-11-12T13:41:10.904Z,15.00
2022-11-12T13:46:39.993Z,15.00
2022-11-12T13:51:53.253Z,15.00
2022-11-12T13:56:56.932Z,15.00
2022-11-12T14:02:15.159Z,15.00
2022-11-12T14:07:27.311Z,15.00
2022-11-12T14:12:53.609Z,15.00
2022-11-12T14:18:12.644Z,15.00
2022-11-12T14:23:24.504Z,14.90
2022-11-12T14:28:33.088Z,14.80
2022-11-12T14:33:35.984Z,14.70
2022-11-12T14:38:48.284Z,14.60
2022-11-12T14:44:11.469Z,14.50
2022-11-12T14:49:47.934Z,14.40
2022-11-12T14:55:00.484Z,14.40
2022-11-12T15:00:44.577Z,14.30
2022-11-12T15:06:04.117Z,14.10
2022-11-12T15:11:35.433Z,14.00
2022-11-12T15:16:43.700Z,13.90
2022-11-12T15:22:02.368Z,13.80
2022-11-12T15:27:35.888Z,13.70
2022-11-12T15:32:38.735Z,13.60
2022-11-12T15:37:43.295Z,13.40
2022-11-12T15:42:48.203Z,13.20
2022-11-12T15:47:50.828Z,12.90
2022-11-12T15:52:54.754Z,12.70
2022-11-12T15:57:58.214Z,12.60
2022-11-12T16:03:20.458Z,12.40
2022-11-12T16:08:23.500Z,12.40
2022-11-12T16:13:36.123Z,12.30
2022-11-12T16:18:39.069Z,12.20
2022-11-12T16:23:41.996Z,12.20
2022-11-12T16:28:45.035Z,12.10
2022-11-12T16:33:48.519Z,12.10
2022-11-12T16:38:51.454Z,12.00
2022-11-12T16:43:54.658Z,11.90
2022-11-12T16:48:57.635Z,11.80
2022-11-12T16:54:00.497Z,11.70
2022-11-12T16:59:04.559Z,11.60
2022-11-12T17:04:07.831Z,11.50
2022-11-12T17:09:12.398Z,11.40
2022-11-12T17:14:16.490Z,11.20
2022-11-12T17:19:19.446Z,11.00
2022-11-12T17:24:22.318Z,10.80
2022-11-12T17:29:25.218Z,10.60
2022-11-12T17:34:28.151Z,10.40
2022-11-12T17:39:31.088Z,10.30
2022-11-12T17:44:34.014Z,10.10
2022-11-12T17:49:37.859Z,10.00
2022-11-12T17:54:40.807Z,9.90
2022-11-12T17:59:43.744Z,9.80
2022-11-12T18:04:46.665Z,9.70
2022-11-12T18:09:49.582Z,9.70
2022-11-12T18:14:54.136Z,9.60
2022-11-12T18:19:57.101Z,9.40
2022-11-12T18:25:01.414Z,9.40
2022-11-12T18:30:05.239Z,9.30
2022-11-12T18:35:08.897Z,9.20
2022-11-12T18:40:12.087Z,9.20
2022-11-12T18:45:15.083Z,9.10
2022-11-12T18:50:18.160Z,9.10
2022-11-12T18:55:21.082Z,9.10
2022-11-12T19:00:23.898Z,9.00
2022-11-12T19:05:26.822Z,8.90
2022-11-12T19:10:30.097Z,8.90
2022-11-12T19:15:34.253Z,8.90
2022-11-12T19:20:37.168Z,8.90
2022-11-12T19:25:40.020Z,8.90
2022-11-12T19:30:42.962Z,9.00
2022-11-12T19:35:45.765Z,9.10
2022-11-12T19:40:48.636Z,9.20
2022-11-12T19:45:51.487Z,9.30
2022-11-12T19:50:54.420Z,9.40
2022-11-12T19:56:04.242Z,9.30
2022-11-12T20:01:10.826Z,9.40
2022-11-12T20:06:20.625Z,9.30
2022-11-12T20:11:23.594Z,9.30
2022-11-12T20:16:28.145Z,9.30
2022-11-12T20:21:31.084Z,9.30
2022-11-12T20:26:33.941Z,9.30
2022-11-12T20:31:37.950Z,9.20
2022-11-12T20:36:40.710Z,9.10
2022-11-12T20:41:43.648Z,9.00
2022-11-12T20:46:46.525Z,8.90
2022-11-12T20:51:49.385Z,8.80
2022-11-12T20:56:52.307Z,8.70
2022-11-12T21:01:58.837Z,8.60
2022-11-12T21:07:05.262Z,8.50
2022-11-12T21:12:08.658Z,8.40
2022-11-12T21:17:11.585Z,8.30
2022-11-12T21:22:15.539Z,8.30
2022-11-12T21:27:18.514Z,8.40
2022-11-12T21:32:21.170Z,8.40
2022-11-12T21:37:23.965Z,8.40
2022-11-12T21:42:26.643Z,8.30
2022-11-12T21:47:29.460Z,8.30
2022-11-12T21:52:32.359Z,8.20
2022-11-12T21:57:35.332Z,8.20
2022-11-12T22:02:38.363Z,8.10
2022-11-12T22:07:41.355Z,8.00
2022-11-12T22:12:58.863Z,7.90
2022-11-12T22:18:07.766Z,7.90
2022-11-12T22:23:10.660Z,7.80
2022-11-12T22:28:13.522Z,7.70
2022-11-12T22:33:16.460Z,7.60
2022-11-12T22:38:19.489Z,7.50
2022-11-12T22:43:22.296Z,7.50
2022-11-12T22:48:25.374Z,7.40
2022-11-12T22:53:29.760Z,7.30
2022-11-12T22:58:45.196Z,7.30
2022-11-12T23:03:50.140Z,7.20
2022-11-12T23:08:56.033Z,7.20
2022-11-12T23:13:58.914Z,7.10
2022-11-12T23:19:01.993Z,7.00
2022-11-12T23:24:05.182Z,6.90
2022-11-12T23:29:12.938Z,6.90
2022-11-12T23:34:16.214Z,6.80
2022-11-12T23:39:19.038Z,6.70
2022-11-12T23:44:21.860Z,6.60
2022-11-12T23:49:24.732Z,6.60
2022-11-12T23:54:27.635Z,6.50
2022-11-12T23:59:30.503Z,6.50
